TimeAKST,TemperatureF,Dew PointF,Humidity,Sea Level PressureIn,VisibilityMPH,Wind Direction,Wind SpeedMPH,Gust SpeedMPH,PrecipitationIn,Events,Conditions,WindDirDegrees,DateUTC
12:01 AM,1.9,-7.1,66,30.09,10.0,SE,5.8,-,N/A,,Clear,130,2013-01-23 09:01:00
1:01 AM,5.0,-5.1,63,30.09,10.0,NE,11.5,-,N/A,,Clear,40,2013-01-23 10:01:00
2:01 AM,-0.0,-8.0,69,30.09,10.0,Calm,Calm,-,N/A,,Clear,0,2013-01-23 11:01:00
3:01 AM,-0.9,-9.0,69,30.09,10.0,ENE,4.6,-,N/A,,Clear,70,2013-01-23 12:01:00
4:01 AM,1.0,-8.0,66,30.08,10.0,East,8.1,-,N/A,,Clear,80,2013-01-23 13:01:00
5:01 AM,1.0,-8.0,66,30.07,10.0,East,6.9,-,N/A,,Clear,80,2013-01-23 14:01:00
6:01 AM,1.0,-9.0,63,30.08,10.0,Variable,5.8,-,N/A,,Clear,0,2013-01-23 15:01:00
7:01 AM,1.0,-9.0,63,30.07,10.0,ENE,5.8,-,N/A,,Clear,70,2013-01-23 16:01:00
8:01 AM,-0.0,-9.0,66,30.07,10.0,NE,6.9,-,N/A,,Clear,40,2013-01-23 17:01:00
9:01 AM,-2.9,-11.0,68,30.08,10.0,ENE,8.1,-,N/A,,Clear,70,2013-01-23 18:01:00
10:01 AM,-2.0,-11.0,66,30.08,10.0,NNE,9.2,-,N/A,,Clear,30,2013-01-23 19:01:00
11:01 AM,1.0,-9.9,60,30.07,10.0,Variable,3.5,-,N/A,,Clear,0,2013-01-23 20:01:00
12:01 PM,-5.1,-13.0,69,30.08,10.0,Calm,Calm,-,N/A,,Clear,0,2013-01-23 21:01:00
1:01 PM,-2.0,-11.9,63,30.07,10.0,NNE,5.8,-,N/A,,Clear,30,2013-01-23 22:01:00
2:01 PM,-2.0,-13.0,60,30.08,10.0,NE,8.1,-,N/A,,Clear,40,2013-01-23 23:01:00
3:01 PM,-0.9,-13.0,57,30.09,10.0,ENE,8.1,-,N/A,,Clear,60,2013-01-24 00:01:00
4:01 PM,-2.0,-13.0,60,30.08,10.0,ENE,6.9,-,N/A,,Clear,60,2013-01-24 01:01:00
5:01 PM,-4.0,-14.1,62,30.09,10.0,ENE,9.2,-,N/A,,Clear,70,2013-01-24 02:01:00
6:01 PM,-7.1,-15.0,68,30.09,10.0,North,9.2,-,N/A,,Clear,360,2013-01-24 03:01:00
7:01 PM,-5.1,-15.0,62,30.10,10.0,ENE,6.9,-,N/A,,Clear,70,2013-01-24 04:01:00
8:01 PM,-7.1,-16.1,65,30.12,10.0,ENE,5.8,-,N/A,,Clear,70,2013-01-24 05:01:00
9:01 PM,-7.1,-16.1,65,30.12,10.0,ENE,8.1,-,N/A,,Clear,60,2013-01-24 06:01:00
10:01 PM,-6.0,-16.1,62,30.13,10.0,ENE,10.4,-,N/A,,Clear,60,2013-01-24 07:01:00
11:01 PM,-7.1,-16.1,65,30.15,10.0,Calm,Calm,-,N/A,,Clear,0,2013-01-24 08:01:00